Time;durP1;ratioP1;P1;durP2;ratioP2;P2;SDS_P1;SDS_P2;PMS_P1;PMS_P2;Temp;Humidity;BMP_temperature;BMP_pressure;BME280_temperature;BME280_humidity;BME280_pressure;Samples;Min_cycle;Max_cycle;Signal;HPM_P1;HPM_P2
2023/09/24 00:02:19;;;;;;;27.50;25.80;;;;;;;;;;5033449;28;20464;-80
2023/09/24 00:04:48;;;;;;;27.03;25.43;;;;;;;;;;5032651;28;20466;-80
2023/09/24 00:07:16;;;;;;;25.43;23.80;;;;;;;;;;5013314;28;20487;-80
2023/09/24 00:09:43;;;;;;;27.50;25.50;;;;;;;;;;5014045;28;20475;-80
2023/09/24 00:12:10;;;;;;;26.57;24.87;;;;;;;;;;5013991;28;20465;-80
2023/09/24 00:14:37;;;;;;;27.73;25.83;;;;;;;;;;5012660;28;20496;-80
2023/09/24 00:17:05;;;;;;;28.40;25.57;;;;;;;;;;5012856;28;20799;-79
2023/09/24 00:19:32;;;;;;;26.80;25.00;;;;;;;;;;5013805;28;20846;-79
2023/09/24 00:22:00;;;;;;;25.93;24.00;;;;;;;;;;5013523;28;20611;-79
2023/09/24 00:24:27;;;;;;;27.93;25.93;;;;;;;;;;5013765;28;20447;-80
2023/09/24 00:26:55;;;;;;;27.50;25.40;;;;;;;;;;5015372;28;20422;-79
2023/09/24 00:29:22;;;;;;;29.03;27.13;;;;;;;;;;5021931;28;20443;-80
2023/09/24 00:31:49;;;;;;;30.60;27.80;;;;;;;;;;5028800;28;20785;-79
2023/09/24 00:34:16;;;;;;;28.60;26.10;;;;;;;;;;5033127;28;20459;-79
2023/09/24 00:36:43;;;;;;;28.17;26.30;;;;;;;;;;5033085;28;20517;-80
2023/09/24 00:39:12;;;;;;;28.60;26.70;;;;;;;;;;5032592;28;20450;-79
2023/09/24 00:41:39;;;;;;;29.23;27.23;;;;;;;;;;5032984;28;20944;-79
2023/09/24 00:44:06;;;;;;;28.03;26.03;;;;;;;;;;5032639;28;20935;-79
2023/09/24 00:46:33;;;;;;;28.27;25.60;;;;;;;;;;5032583;28;20487;-80
2023/09/24 00:49:00;;;;;;;28.53;26.40;;;;;;;;;;5033220;28;20459;-79
2023/09/24 00:51:29;;;;;;;28.40;26.00;;;;;;;;;;5034920;28;20448;-80
2023/09/24 00:53:57;;;;;;;27.90;25.90;;;;;;;;;;5053095;28;20470;-79
2023/09/24 00:56:25;;;;;;;28.93;26.90;;;;;;;;;;5050434;28;20533;-80
2023/09/24 00:58:54;;;;;;;29.57;27.50;;;;;;;;;;5033220;28;20443;-80
2023/09/24 01:01:24;;;;;;;27.63;25.43;;;;;;;;;;5033101;28;20446;-80
2023/09/24 01:03:51;;;;;;;28.10;26.20;;;;;;;;;;5032980;28;20479;-79
2023/09/24 01:06:19;;;;;;;28.67;26.20;;;;;;;;;;5032422;28;20469;-80
2023/09/24 01:08:46;;;;;;;28.10;25.90;;;;;;;;;;5033266;28;20501;-79
2023/09/24 01:11:13;;;;;;;27.80;25.90;;;;;;;;;;5032457;28;20429;-80
2023/09/24 01:13:42;;;;;;;28.30;26.50;;;;;;;;;;5032858;28;20458;-79
2023/09/24 01:16:10;;;;;;;27.80;25.90;;;;;;;;;;5031970;28;20410;-80
2023/09/24 01:18:39;;;;;;;28.93;26.80;;;;;;;;;;5032836;28;20477;-79
2023/09/24 01:21:11;;;;;;;28.33;26.10;;;;;;;;;;5032767;28;20454;-79
2023/09/24 01:23:40;;;;;;;28.27;26.37;;;;;;;;;;5032457;28;20578;-80
2023/09/24 01:26:10;;;;;;;29.73;27.73;;;;;;;;;;5015143;28;20582;-79
2023/09/24 01:28:39;;;;;;;30.40;28.07;;;;;;;;;;5016094;28;20959;-80
2023/09/24 01:31:06;;;;;;;28.90;26.87;;;;;;;;;;5016961;28;20458;-80
2023/09/24 01:33:36;;;;;;;28.90;26.87;;;;;;;;;;5016436;28;20455;-80
2023/09/24 01:36:03;;;;;;;28.93;26.93;;;;;;;;;;5016082;28;20449;-80
2023/09/24 01:38:31;;;;;;;28.30;26.33;;;;;;;;;;5016865;28;20527;-80
2023/09/24 01:41:00;;;;;;;27.63;25.87;;;;;;;;;;5016754;28;20448;-79
2023/09/24 01:43:27;;;;;;;28.40;26.40;;;;;;;;;;5017009;28;20507;-80
2023/09/24 01:45:54;;;;;;;28.60;26.50;;;;;;;;;;5016075;28;20488;-79
2023/09/24 01:48:22;;;;;;;29.30;27.20;;;;;;;;;;5016298;28;20430;-79
2023/09/24 01:50:49;;;;;;;29.77;27.50;;;;;;;;;;5016402;28;20456;-80
2023/09/24 01:53:16;;;;;;;29.47;27.30;;;;;;;;;;5016391;28;20443;-80
2023/09/24 01:55:43;;;;;;;30.97;28.20;;;;;;;;;;5016017;28;20423;-80
2023/09/24 01:58:12;;;;;;;30.40;28.00;;;;;;;;;;5015455;28;20479;-79
2023/09/24 02:00:40;;;;;;;30.37;28.07;;;;;;;;;;5016036;28;20444;-79
2023/09/24 02:03:10;;;;;;;30.07;27.87;;;;;;;;;;5015950;28;20451;-79
2023/09/24 02:05:39;;;;;;;28.97;26.93;;;;;;;;;;5015588;28;20477;-82
2023/09/24 02:08:10;;;;;;;28.67;26.47;;;;;;;;;;5016105;28;20878;-79
2023/09/24 02:10:39;;;;;;;28.57;26.67;;;;;;;;;;5016161;28;20445;-80
2023/09/24 02:13:07;;;;;;;31.30;28.80;;;;;;;;;;5016083;28;20478;-80
2023/09/24 02:15:35;;;;;;;29.90;27.77;;;;;;;;;;5015360;28;20444;-80
2023/09/24 02:18:04;;;;;;;29.80;27.70;;;;;;;;;;5015126;28;20932;-78
2023/09/24 02:20:32;;;;;;;29.67;27.50;;;;;;;;;;5016017;28;20464;-80
2023/09/24 02:23:00;;;;;;;28.40;26.40;;;;;;;;;;5015832;28;20488;-80
2023/09/24 02:25:28;;;;;;;29.07;26.97;;;;;;;;;;5015252;28;21086;-79
2023/09/24 02:27:56;;;;;;;28.57;26.10;;;;;;;;;;5014762;28;20515;-81
2023/09/24 02:30:24;;;;;;;28.57;26.63;;;;;;;;;;5015357;28;20453;-80
2023/09/24 02:32:53;;;;;;;29.57;27.60;;;;;;;;;;5014709;28;21255;-80
2023/09/24 02:35:20;;;;;;;29.80;27.60;;;;;;;;;;5015642;28;20451;-79
2023/09/24 02:37:48;;;;;;;30.47;28.27;;;;;;;;;;5014319;28;20469;-79
2023/09/24 02:40:21;;;;;;;29.87;27.77;;;;;;;;;;5015296;28;20449;-79
2023/09/24 02:42:48;;;;;;;29.67;27.47;;;;;;;;;;5015714;28;20563;-80
2023/09/24 02:45:17;;;;;;;28.23;26.33;;;;;;;;;;5014897;28;20433;-79
2023/09/24 02:47:45;;;;;;;29.63;27.00;;;;;;;;;;5014428;28;20510;-80
2023/09/24 02:50:14;;;;;;;28.97;26.87;;;;;;;;;;5014787;28;20471;-79
2023/09/24 02:52:42;;;;;;;28.13;26.13;;;;;;;;;;5015190;28;20610;-79
2023/09/24 02:55:12;;;;;;;28.50;26.50;;;;;;;;;;5015134;28;20461;-79
2023/09/24 02:57:39;;;;;;;29.77;27.67;;;;;;;;;;5014545;28;20445;-80
2023/09/24 03:00:12;;;;;;;30.27;27.97;;;;;;;;;;5015169;28;20455;-79
2023/09/24 03:02:39;;;;;;;29.10;27.00;;;;;;;;;;5014776;28;20483;-79
2023/09/24 03:05:08;;;;;;;28.37;26.47;;;;;;;;;;5015191;28;20941;-80
2023/09/24 03:07:37;;;;;;;29.60;27.40;;;;;;;;;;5013490;28;21000;-80
2023/09/24 03:10:06;;;;;;;28.53;26.50;;;;;;;;;;5015165;28;20495;-80
2023/09/24 03:12:34;;;;;;;29.93;27.43;;;;;;;;;;5014254;28;20447;-80
2023/09/24 03:15:01;;;;;;;29.23;27.00;;;;;;;;;;5014445;28;20494;-81
2023/09/24 03:17:28;;;;;;;27.03;25.23;;;;;;;;;;5014229;28;20455;-79
2023/09/24 03:19:56;;;;;;;29.50;27.17;;;;;;;;;;5014648;28;20445;-79
2023/09/24 03:22:24;;;;;;;28.53;26.40;;;;;;;;;;5014705;28;20451;-79
2023/09/24 03:24:53;;;;;;;27.47;25.57;;;;;;;;;;5014912;28;20455;-79
2023/09/24 03:27:21;;;;;;;28.57;26.60;;;;;;;;;;5013104;28;20479;-79
2023/09/24 03:29:48;;;;;;;26.73;24.93;;;;;;;;;;5014751;28;20452;-78
2023/09/24 03:32:15;;;;;;;29.20;27.30;;;;;;;;;;5014073;28;20451;-79
2023/09/24 03:34:44;;;;;;;28.60;26.70;;;;;;;;;;5013821;28;20435;-80
2023/09/24 03:37:14;;;;;;;28.87;26.63;;;;;;;;;;5013555;28;20452;-80
2023/09/24 03:39:41;;;;;;;29.80;27.60;;;;;;;;;;5014249;28;20459;-79
2023/09/24 03:42:10;;;;;;;30.20;28.00;;;;;;;;;;5014131;28;20977;-79
2023/09/24 03:44:38;;;;;;;30.23;28.03;;;;;;;;;;5014267;28;20479;-80
2023/09/24 03:47:05;;;;;;;31.47;28.90;;;;;;;;;;5013597;28;20496;-79
2023/09/24 03:49:32;;;;;;;29.00;27.10;;;;;;;;;;5014911;28;20478;-79
2023/09/24 03:51:59;;;;;;;30.93;28.53;;;;;;;;;;5013805;28;20465;-80
2023/09/24 03:54:27;;;;;;;28.60;26.50;;;;;;;;;;5014324;28;20945;-80
2023/09/24 03:56:55;;;;;;;27.90;25.90;;;;;;;;;;5013341;28;20445;-79
2023/09/24 03:59:23;;;;;;;29.60;27.37;;;;;;;;;;5013563;28;20452;-79
2023/09/24 04:01:50;;;;;;;27.90;25.90;;;;;;;;;;5013565;28;20442;-80
2023/09/24 04:04:19;;;;;;;28.90;26.73;;;;;;;;;;5013516;28;20784;-80
2023/09/24 04:06:46;;;;;;;28.10;25.93;;;;;;;;;;5013023;28;20463;-79
2023/09/24 04:09:13;;;;;;;29.10;27.00;;;;;;;;;;5013332;28;20450;-79
2023/09/24 04:11:40;;;;;;;28.57;26.47;;;;;;;;;;5013759;28;20459;-78
2023/09/24 04:14:07;;;;;;;29.07;27.00;;;;;;;;;;5013207;28;20470;-79
2023/09/24 04:16:36;;;;;;;29.63;27.40;;;;;;;;;;5013546;28;20801;-80
2023/09/24 04:19:03;;;;;;;30.90;28.60;;;;;;;;;;5014304;28;20451;-79
2023/09/24 04:21:31;;;;;;;30.10;27.80;;;;;;;;;;5013633;28;20431;-80
2023/09/24 04:23:58;;;;;;;30.43;27.90;;;;;;;;;;5013680;28;20460;-79
2023/09/24 04:26:25;;;;;;;33.67;30.13;;;;;;;;;;5013311;28;20488;-80
2023/09/24 04:28:54;;;;;;;32.07;29.17;;;;;;;;;;5013650;28;20452;-80
2023/09/24 04:31:21;;;;;;;29.77;27.30;;;;;;;;;;5013635;28;20475;-79
2023/09/24 04:33:50;;;;;;;30.60;28.23;;;;;;;;;;5012822;28;20499;-79
2023/09/24 04:36:19;;;;;;;29.90;27.57;;;;;;;;;;5013124;28;20426;-80
2023/09/24 04:38:47;;;;;;;32.30;29.60;;;;;;;;;;5013524;28;20427;-79
2023/09/24 04:41:15;;;;;;;31.93;29.33;;;;;;;;;;5013412;28;20452;-79
2023/09/24 04:43:42;;;;;;;33.57;29.97;;;;;;;;;;5013385;28;20502;-79
2023/09/24 04:46:09;;;;;;;31.30;28.57;;;;;;;;;;5012541;28;20842;-79
2023/09/24 04:48:37;;;;;;;31.67;28.83;;;;;;;;;;5013824;28;20869;-79
2023/09/24 04:51:05;;;;;;;32.30;29.50;;;;;;;;;;5013510;28;20432;-79
2023/09/24 04:53:33;;;;;;;35.03;31.73;;;;;;;;;;5013891;28;20536;-80
2023/09/24 04:56:00;;;;;;;33.87;30.60;;;;;;;;;;5012778;28;20431;-79
2023/09/24 04:58:27;;;;;;;35.63;32.13;;;;;;;;;;5013266;28;20490;-80
2023/09/24 05:01:03;;;;;;;37.40;33.60;;;;;;;;;;5015952;28;20441;-80
2023/09/24 05:03:31;;;;;;;36.23;32.73;;;;;;;;;;5017232;28;20463;-78
2023/09/24 05:05:58;;;;;;;39.23;35.00;;;;;;;;;;5016531;28;20483;-80
2023/09/24 05:08:26;;;;;;;46.33;37.07;;;;;;;;;;5017052;28;20444;-81
2023/09/24 05:10:54;;;;;;;55.27;37.93;;;;;;;;;;5017240;28;20460;-79
2023/09/24 05:13:21;;;;;;;88.60;39.03;;;;;;;;;;5016281;28;20511;-79
2023/09/24 05:15:53;;;;;;;40.43;36.13;;;;;;;;;;5016161;28;20440;-79
2023/09/24 05:18:20;;;;;;;52.73;39.57;;;;;;;;;;5015691;28;20805;-79
2023/09/24 05:20:47;;;;;;;49.83;37.07;;;;;;;;;;5016776;28;20408;-79
2023/09/24 05:23:14;;;;;;;96.13;39.97;;;;;;;;;;5017110;28;20447;-80
2023/09/24 05:25:43;;;;;;;76.30;40.73;;;;;;;;;;5016046;28;20439;-81
2023/09/24 05:28:13;;;;;;;54.57;37.70;;;;;;;;;;5016786;28;20490;-80
2023/09/24 05:30:42;;;;;;;87.07;40.70;;;;;;;;;;5016522;28;20537;-78
2023/09/24 05:33:09;;;;;;;106.53;40.20;;;;;;;;;;5016433;28;20495;-80
2023/09/24 05:35:37;;;;;;;128.47;41.07;;;;;;;;;;5016044;28;20440;-78
2023/09/24 05:38:04;;;;;;;123.87;40.13;;;;;;;;;;5025799;28;20437;-79
2023/09/24 05:40:31;;;;;;;161.60;43.40;;;;;;;;;;5027127;28;20476;-77
2023/09/24 05:43:00;;;;;;;161.17;42.10;;;;;;;;;;5022305;28;20511;-77
2023/09/24 05:45:27;;;;;;;74.57;38.87;;;;;;;;;;5025739;28;20418;-78
2023/09/24 05:47:54;;;;;;;115.20;42.50;;;;;;;;;;5033109;28;20487;-79
2023/09/24 05:50:21;;;;;;;135.83;41.80;;;;;;;;;;5034605;28;20455;-80
2023/09/24 05:52:48;;;;;;;54.73;38.27;;;;;;;;;;5036360;28;20463;-80
2023/09/24 05:55:15;;;;;;;54.03;38.50;;;;;;;;;;5033259;28;20428;-77
2023/09/24 05:57:42;;;;;;;56.97;41.00;;;;;;;;;;5031822;28;20467;-79
2023/09/24 06:00:12;;;;;;;67.27;39.07;;;;;;;;;;5033028;28;20811;-78
2023/09/24 06:02:40;;;;;;;66.37;40.87;;;;;;;;;;5032925;28;20458;-77
2023/09/24 06:05:09;;;;;;;42.03;37.47;;;;;;;;;;5033267;28;20444;-78
2023/09/24 06:07:36;;;;;;;41.00;37.10;;;;;;;;;;5032715;28;20565;-78
2023/09/24 06:10:05;;;;;;;38.27;34.63;;;;;;;;;;5033205;28;20458;-77
2023/09/24 06:12:32;;;;;;;37.47;33.97;;;;;;;;;;5033165;28;20516;-77
2023/09/24 06:14:59;;;;;;;37.90;34.13;;;;;;;;;;5033044;28;20811;-77
2023/09/24 06:17:30;;;;;;;36.40;33.23;;;;;;;;;;5032122;28;20469;-77
2023/09/24 06:19:57;;;;;;;36.00;32.80;;;;;;;;;;5033252;28;20435;-76
2023/09/24 06:22:24;;;;;;;35.50;32.00;;;;;;;;;;5032541;28;20468;-76
2023/09/24 06:24:51;;;;;;;35.17;32.20;;;;;;;;;;5032570;28;20817;-78
2023/09/24 06:27:19;;;;;;;35.27;31.97;;;;;;;;;;5031902;28;20519;-77
2023/09/24 06:29:46;;;;;;;34.33;31.43;;;;;;;;;;5024641;28;20520;-77
2023/09/24 06:32:13;;;;;;;32.60;29.90;;;;;;;;;;5015226;28;20559;-77
2023/09/24 06:34:42;;;;;;;32.80;29.80;;;;;;;;;;5012488;28;20475;-76
2023/09/24 06:37:09;;;;;;;34.40;31.10;;;;;;;;;;5012299;28;20447;-77
2023/09/24 06:39:36;;;;;;;32.77;30.17;;;;;;;;;;5012856;28;20435;-78
2023/09/24 06:42:03;;;;;;;32.70;29.90;;;;;;;;;;5013027;28;20450;-77
2023/09/24 06:44:30;;;;;;;30.93;28.37;;;;;;;;;;5012138;28;20502;-77
2023/09/24 06:46:57;;;;;;;31.90;29.20;;;;;;;;;;5011033;28;20547;-78
2023/09/24 06:49:24;;;;;;;31.00;28.40;;;;;;;;;;5011622;28;20423;-77
2023/09/24 06:51:53;;;;;;;31.00;28.53;;;;;;;;;;5011475;28;20462;-77
2023/09/24 06:54:20;;;;;;;28.70;26.70;;;;;;;;;;5011051;28;20427;-78
2023/09/24 06:56:47;;;;;;;30.40;27.97;;;;;;;;;;5011042;28;20504;-78
2023/09/24 06:59:15;;;;;;;29.03;26.93;;;;;;;;;;5030899;28;20808;-77
2023/09/24 07:01:42;;;;;;;28.30;26.00;;;;;;;;;;5031016;28;20444;-77
2023/09/24 07:04:09;;;;;;;28.50;26.40;;;;;;;;;;5031019;28;20425;-78
2023/09/24 07:06:36;;;;;;;27.97;25.90;;;;;;;;;;5029628;28;20478;-78
2023/09/24 07:09:05;;;;;;;26.97;25.00;;;;;;;;;;5030901;28;20451;-77
2023/09/24 07:11:36;;;;;;;26.83;25.13;;;;;;;;;;5030362;28;20451;-77
2023/09/24 07:14:04;;;;;;;25.50;23.60;;;;;;;;;;5030332;28;20558;-78
2023/09/24 07:16:31;;;;;;;27.13;25.10;;;;;;;;;;5030425;28;20491;-77
2023/09/24 07:18:58;;;;;;;25.77;24.07;;;;;;;;;;5030660;28;20914;-78
2023/09/24 07:21:26;;;;;;;25.30;23.50;;;;;;;;;;5031999;28;20434;-78
2023/09/24 07:23:54;;;;;;;26.40;24.50;;;;;;;;;;5028673;28;20597;-78
2023/09/24 07:26:23;;;;;;;25.83;23.83;;;;;;;;;;5029573;28;20481;-78
2023/09/24 07:28:50;;;;;;;28.30;25.63;;;;;;;;;;5030473;28;20497;-78
2023/09/24 07:31:19;;;;;;;24.07;22.30;;;;;;;;;;5030622;28;20452;-76
2023/09/24 07:33:46;;;;;;;23.83;22.07;;;;;;;;;;5030390;28;20487;-77
2023/09/24 07:36:13;;;;;;;25.23;23.37;;;;;;;;;;5030181;28;20784;-77
2023/09/24 07:38:41;;;;;;;25.43;23.40;;;;;;;;;;5030506;28;20458;-78
2023/09/24 07:41:08;;;;;;;24.83;23.23;;;;;;;;;;5014494;28;20940;-78
2023/09/24 07:43:37;;;;;;;23.30;21.70;;;;;;;;;;5010785;28;20472;-78
2023/09/24 07:46:05;;;;;;;24.23;22.53;;;;;;;;;;5010333;28;20423;-77
2023/09/24 07:48:32;;;;;;;25.23;22.90;;;;;;;;;;5011145;28;20489;-77
2023/09/24 07:50:59;;;;;;;25.50;23.27;;;;;;;;;;5011663;28;20431;-77
2023/09/24 07:53:26;;;;;;;22.90;21.37;;;;;;;;;;5011526;28;20874;-77
2023/09/24 07:55:56;;;;;;;23.90;22.10;;;;;;;;;;5011055;28;21069;-78
2023/09/24 07:58:24;;;;;;;23.03;21.37;;;;;;;;;;5011436;28;20430;-77
2023/09/24 08:00:53;;;;;;;23.77;22.00;;;;;;;;;;5011359;28;20484;-78
2023/09/24 08:03:23;;;;;;;23.87;21.73;;;;;;;;;;5012234;28;20863;-78
2023/09/24 08:05:50;;;;;;;24.87;23.10;;;;;;;;;;5025968;28;20459;-77
2023/09/24 08:08:17;;;;;;;22.30;20.70;;;;;;;;;;5029881;28;20473;-78
2023/09/24 08:10:44;;;;;;;23.63;21.83;;;;;;;;;;5030239;28;20426;-77
2023/09/24 08:13:11;;;;;;;23.70;22.10;;;;;;;;;;5029955;28;20461;-77
2023/09/24 08:15:38;;;;;;;23.77;21.90;;;;;;;;;;5030235;28;20426;-78
2023/09/24 08:18:09;;;;;;;22.30;21.00;;;;;;;;;;5030102;28;20455;-77
2023/09/24 08:20:37;;;;;;;22.73;21.03;;;;;;;;;;5031265;28;20849;-77
2023/09/24 08:23:04;;;;;;;22.47;21.07;;;;;;;;;;5029939;28;20471;-78
2023/09/24 08:25:31;;;;;;;22.20;20.60;;;;;;;;;;5017671;28;21006;-78
2023/09/24 08:27:58;;;;;;;22.87;21.27;;;;;;;;;;5024319;28;20472;-77
2023/09/24 08:30:26;;;;;;;22.37;20.57;;;;;;;;;;5030314;28;20426;-78
2023/09/24 08:32:53;;;;;;;23.43;21.77;;;;;;;;;;5029368;28;20446;-77
2023/09/24 08:35:22;;;;;;;24.10;21.73;;;;;;;;;;5032625;28;20422;-77
2023/09/24 08:37:49;;;;;;;23.57;21.93;;;;;;;;;;5034408;28;20450;-77
2023/09/24 08:40:16;;;;;;;22.73;21.10;;;;;;;;;;5034907;28;20470;-78
2023/09/24 08:42:46;;;;;;;23.33;21.73;;;;;;;;;;5024154;28;20459;-77
2023/09/24 08:45:14;;;;;;;23.10;21.40;;;;;;;;;;5014087;28;20431;-76
2023/09/24 08:47:42;;;;;;;22.70;21.07;;;;;;;;;;5013627;28;20545;-77
2023/09/24 08:50:10;;;;;;;22.47;21.00;;;;;;;;;;5015547;28;20449;-83
2023/09/24 08:52:40;;;;;;;22.47;20.80;;;;;;;;;;5036080;28;21018;-80
2023/09/24 08:55:08;;;;;;;22.50;20.93;;;;;;;;;;5037366;28;20937;-81
2023/09/24 08:57:36;;;;;;;21.63;20.13;;;;;;;;;;5037236;28;20920;-80
2023/09/24 09:00:06;;;;;;;22.20;20.60;;;;;;;;;;5036214;28;20442;-80
2023/09/24 09:02:36;;;;;;;23.13;21.10;;;;;;;;;;5035932;28;20491;-86
2023/09/24 09:05:07;;;;;;;20.47;19.20;;;;;;;;;;5036741;28;21237;-83
2023/09/24 09:07:34;;;;;;;22.10;20.47;;;;;;;;;;5035250;28;20465;-85
2023/09/24 09:10:04;;;;;;;21.57;19.93;;;;;;;;;;5036038;28;20935;-80
2023/09/24 09:12:31;;;;;;;21.50;19.80;;;;;;;;;;5034791;28;20835;-79
2023/09/24 09:14:59;;;;;;;21.10;19.23;;;;;;;;;;5037034;28;20815;-84
2023/09/24 09:17:40;;;;;;;21.67;19.87;;;;;;;;;;5037761;28;20479;-83
2023/09/24 09:20:07;;;;;;;21.67;20.07;;;;;;;;;;5033114;28;20505;-79
2023/09/24 09:22:35;;;;;;;23.07;20.80;;;;;;;;;;5036582;28;20472;-82
2023/09/24 09:25:05;;;;;;;21.20;20.00;;;;;;;;;;5038006;28;20446;-82
2023/09/24 09:27:32;;;;;;;20.93;19.47;;;;;;;;;;5037235;28;20498;-78
2023/09/24 09:30:11;;;;;;;21.60;19.87;;;;;;;;;;5044935;28;20437;-81
2023/09/24 09:32:38;;;;;;;22.23;20.40;;;;;;;;;;5055823;28;20474;-82
2023/09/24 09:35:07;;;;;;;21.17;19.87;;;;;;;;;;5055340;28;20477;-83
2023/09/24 09:37:34;;;;;;;21.43;19.93;;;;;;;;;;5056802;28;20454;-82
2023/09/24 09:40:02;;;;;;;22.67;20.47;;;;;;;;;;5058067;28;20447;-81
2023/09/24 09:42:33;;;;;;;20.90;19.70;;;;;;;;;;5057498;28;20528;-82
2023/09/24 09:45:02;;;;;;;22.63;21.03;;;;;;;;;;5035187;28;20430;-82
2023/09/24 09:47:30;;;;;;;23.30;21.57;;;;;;;;;;5036273;28;20541;-82
2023/09/24 09:49:58;;;;;;;21.30;20.00;;;;;;;;;;5037166;28;20936;-83
2023/09/24 09:52:28;;;;;;;22.97;20.93;;;;;;;;;;5034157;28;20501;-83
2023/09/24 09:54:56;;;;;;;21.70;20.27;;;;;;;;;;5016707;28;20453;-82
2023/09/24 09:57:25;;;;;;;21.27;20.10;;;;;;;;;;5015081;28;20448;-84
2023/09/24 10:00:05;;;;;;;22.60;21.30;;;;;;;;;;5016545;28;20431;-85
2023/09/24 10:02:33;;;;;;;23.93;21.90;;;;;;;;;;5018759;28;20938;-86
2023/09/24 10:05:03;;;;;;;21.43;19.97;;;;;;;;;;5026718;28;20513;-85
2023/09/24 10:07:30;;;;;;;22.57;21.13;;;;;;;;;;5017603;28;20453;-85
2023/09/24 10:09:57;;;;;;;22.47;21.17;;;;;;;;;;5018705;28;20407;-86
2023/09/24 10:12:35;;;;;;;23.97;22.00;;;;;;;;;;5021933;28;20480;-86
2023/09/24 10:15:17;;;;;;;24.07;21.93;;;;;;;;;;5034045;28;20449;-86
2023/09/24 10:17:45;;;;;;;22.40;21.00;;;;;;;;;;5031657;28;20444;-86
2023/09/24 10:20:13;;;;;;;23.70;21.83;;;;;;;;;;5029587;28;21059;-85
2023/09/24 10:22:42;;;;;;;22.53;20.80;;;;;;;;;;5025809;28;21151;-83
2023/09/24 10:25:23;;;;;;;21.07;19.60;;;;;;;;;;5036779;28;20469;-84
2023/09/24 10:28:08;;;;;;;21.77;20.10;;;;;;;;;;5024010;28;20522;-83
2023/09/24 10:30:50;;;;;;;21.10;19.90;;;;;;;;;;5039957;28;20451;-84
2023/09/24 10:33:39;;;;;;;20.37;19.07;;;;;;;;;;5038033;28;20497;-86
2023/09/24 10:36:21;;;;;;;22.13;20.83;;;;;;;;;;5032946;28;20463;-86
2023/09/24 10:39:03;;;;;;;22.50;21.20;;;;;;;;;;5020360;28;20400;-84
2023/09/24 10:41:30;;;;;;;22.40;20.83;;;;;;;;;;5021468;28;20419;-85
2023/09/24 10:44:16;;;;;;;22.50;21.20;;;;;;;;;;5021241;28;20843;-85
2023/09/24 10:46:43;;;;;;;21.47;20.27;;;;;;;;;;5020689;28;20441;-86
2023/09/24 10:49:11;;;;;;;21.90;20.70;;;;;;;;;;5020978;28;20469;-84
2023/09/24 10:51:38;;;;;;;22.33;21.03;;;;;;;;;;5021164;28;20443;-85
2023/09/24 10:54:12;;;;;;;23.43;22.00;;;;;;;;;;5020839;28;20427;-85
2023/09/24 10:56:39;;;;;;;22.80;21.40;;;;;;;;;;5038111;28;20811;-79
2023/09/24 10:59:06;;;;;;;22.63;21.10;;;;;;;;;;5037420;28;20436;-79
2023/09/24 11:01:33;;;;;;;22.80;21.10;;;;;;;;;;5037679;28;20426;-85
2023/09/24 11:04:00;;;;;;;21.47;20.27;;;;;;;;;;5038593;28;20457;-84
2023/09/24 11:06:32;;;;;;;21.53;20.23;;;;;;;;;;5036861;28;20993;-84
2023/09/24 11:09:15;;;;;;;22.57;21.27;;;;;;;;;;5036609;28;20479;-84
2023/09/24 11:11:42;;;;;;;21.60;20.30;;;;;;;;;;5033505;28;20777;-78
2023/09/24 11:14:20;;;;;;;22.20;20.90;;;;;;;;;;5043107;28;20454;-81
2023/09/24 11:16:48;;;;;;;21.17;20.07;;;;;;;;;;5053002;28;20402;-80
2023/09/24 11:19:15;;;;;;;22.33;20.93;;;;;;;;;;5053253;28;20612;-79
2023/09/24 11:21:43;;;;;;;21.60;20.20;;;;;;;;;;5053443;28;20504;-80
2023/09/24 11:24:21;;;;;;;22.23;20.70;;;;;;;;;;5053804;28;20442;-79
2023/09/24 11:26:48;;;;;;;21.53;20.33;;;;;;;;;;5053036;28;20451;-79
2023/09/24 11:29:16;;;;;;;22.23;20.67;;;;;;;;;;5053144;28;20498;-80
2023/09/24 11:31:46;;;;;;;20.97;19.87;;;;;;;;;;5053606;28;20439;-79
2023/09/24 11:34:23;;;;;;;21.60;20.30;;;;;;;;;;5054171;28;20458;-79
2023/09/24 11:36:56;;;;;;;22.03;20.63;;;;;;;;;;5054733;28;21162;-80
2023/09/24 11:39:23;;;;;;;21.87;20.47;;;;;;;;;;5054910;28;21116;-79
2023/09/24 11:41:50;;;;;;;22.00;20.67;;;;;;;;;;5052676;28;21293;-80
2023/09/24 11:44:17;;;;;;;21.53;20.33;;;;;;;;;;5054078;28;20501;-81
2023/09/24 11:46:45;;;;;;;22.10;20.60;;;;;;;;;;5053074;28;20947;-80
2023/09/24 11:49:12;;;;;;;21.30;20.00;;;;;;;;;;5054254;28;20813;-80
2023/09/24 11:51:40;;;;;;;21.87;20.50;;;;;;;;;;5053716;28;20985;-81
2023/09/24 11:54:13;;;;;;;22.00;20.90;;;;;;;;;;5054463;28;20457;-81
2023/09/24 11:56:40;;;;;;;21.83;20.63;;;;;;;;;;5053288;28;21188;-80
2023/09/24 11:59:07;;;;;;;22.30;21.10;;;;;;;;;;5053729;28;20450;-80
2023/09/24 12:01:34;;;;;;;22.00;20.80;;;;;;;;;;5053571;28;20421;-81
2023/09/24 12:04:01;;;;;;;21.57;20.37;;;;;;;;;;5053373;28;20453;-81
2023/09/24 12:06:28;;;;;;;21.40;19.97;;;;;;;;;;5053546;28;20417;-81
2023/09/24 12:08:55;;;;;;;21.53;20.10;;;;;;;;;;5053410;28;20574;-81
2023/09/24 12:11:24;;;;;;;22.83;21.53;;;;;;;;;;5053236;28;20766;-80
2023/09/24 12:13:52;;;;;;;22.40;21.10;;;;;;;;;;5053239;28;20987;-81
2023/09/24 12:16:20;;;;;;;21.83;20.73;;;;;;;;;;5052550;28;20963;-80
2023/09/24 12:18:47;;;;;;;22.10;20.90;;;;;;;;;;5053350;28;20429;-80
2023/09/24 12:21:15;;;;;;;22.87;21.57;;;;;;;;;;5053170;28;20439;-80
2023/09/24 12:23:45;;;;;;;22.53;21.30;;;;;;;;;;5053451;28;20550;-81
2023/09/24 12:26:12;;;;;;;23.07;21.67;;;;;;;;;;5052920;28;20456;-79
2023/09/24 12:28:41;;;;;;;22.23;21.13;;;;;;;;;;5053147;28;20482;-80
2023/09/24 12:31:09;;;;;;;22.60;21.40;;;;;;;;;;5054000;28;20450;-81
2023/09/24 12:33:36;;;;;;;22.53;21.27;;;;;;;;;;5053322;28;20449;-81
2023/09/24 12:36:03;;;;;;;22.63;21.23;;;;;;;;;;5053680;28;20446;-79
2023/09/24 12:38:30;;;;;;;22.50;21.40;;;;;;;;;;5053486;28;20451;-80
2023/09/24 12:40:57;;;;;;;21.80;20.60;;;;;;;;;;5053183;28;20800;-79
2023/09/24 12:43:25;;;;;;;22.53;21.33;;;;;;;;;;5052386;28;20573;-80
2023/09/24 12:45:54;;;;;;;22.53;21.33;;;;;;;;;;5053092;28;20421;-79
2023/09/24 12:48:24;;;;;;;22.47;21.07;;;;;;;;;;5054297;28;20428;-81
2023/09/24 12:50:51;;;;;;;23.07;21.67;;;;;;;;;;5054527;28;20431;-80
2023/09/24 12:53:19;;;;;;;22.80;21.60;;;;;;;;;;5053784;28;20467;-80
2023/09/24 12:55:46;;;;;;;22.60;21.40;;;;;;;;;;5052064;28;20478;-81
2023/09/24 12:58:13;;;;;;;22.30;21.10;;;;;;;;;;5054003;28;20424;-80
2023/09/24 13:00:40;;;;;;;22.77;21.50;;;;;;;;;;5054393;28;20678;-81
2023/09/24 13:03:10;;;;;;;22.77;21.37;;;;;;;;;;5054022;28;20466;-79
2023/09/24 13:05:37;;;;;;;23.57;22.27;;;;;;;;;;5053798;28;20447;-81
2023/09/24 13:08:04;;;;;;;22.87;21.50;;;;;;;;;;5053201;28;20439;-80
2023/09/24 13:10:31;;;;;;;22.30;21.10;;;;;;;;;;5053688;28;20525;-80
2023/09/24 13:12:58;;;;;;;22.07;20.97;;;;;;;;;;5053891;28;20558;-80
2023/09/24 13:15:25;;;;;;;22.17;21.07;;;;;;;;;;5053312;28;20440;-80
2023/09/24 13:17:53;;;;;;;22.50;21.20;;;;;;;;;;5052415;28;20458;-81
2023/09/24 13:20:21;;;;;;;21.87;20.73;;;;;;;;;;5053383;28;20438;-80
2023/09/24 13:22:48;;;;;;;22.33;21.13;;;;;;;;;;5056500;28;20474;-80
2023/09/24 13:25:15;;;;;;;21.67;20.47;;;;;;;;;;5056689;28;20428;-81
2023/09/24 13:27:42;;;;;;;22.70;21.50;;;;;;;;;;5055695;28;20461;-80
2023/09/24 13:30:10;;;;;;;22.97;21.57;;;;;;;;;;5056440;28;20480;-81
2023/09/24 13:32:37;;;;;;;22.50;21.00;;;;;;;;;;5056263;28;20982;-80
2023/09/24 13:35:06;;;;;;;21.97;20.77;;;;;;;;;;5056147;28;20457;-80
2023/09/24 13:37:34;;;;;;;21.67;20.30;;;;;;;;;;5055823;28;20525;-80
2023/09/24 13:40:04;;;;;;;21.70;20.40;;;;;;;;;;5056812;28;20457;-80
2023/09/24 13:42:31;;;;;;;21.70;20.43;;;;;;;;;;5055892;28;20482;-80
2023/09/24 13:44:58;;;;;;;21.73;20.43;;;;;;;;;;5056325;28;20454;-80
2023/09/24 13:47:25;;;;;;;21.67;20.27;;;;;;;;;;5055332;28;20436;-80
2023/09/24 13:49:54;;;;;;;21.67;20.37;;;;;;;;;;5055713;28;20983;-80
2023/09/24 13:52:21;;;;;;;21.90;20.50;;;;;;;;;;5039695;28;20473;-80
2023/09/24 13:54:50;;;;;;;21.63;20.23;;;;;;;;;;5035280;28;20550;-79
2023/09/24 13:57:17;;;;;;;21.30;19.90;;;;;;;;;;5034426;28;20464;-79
2023/09/24 13:59:44;;;;;;;21.00;19.80;;;;;;;;;;5035824;28;20402;-81
2023/09/24 14:02:11;;;;;;;21.33;20.00;;;;;;;;;;5035503;28;20482;-81
2023/09/24 14:04:38;;;;;;;21.33;20.13;;;;;;;;;;5035967;28;20447;-81
2023/09/24 14:07:06;;;;;;;21.20;19.90;;;;;;;;;;5035141;28;20434;-80
2023/09/24 14:12:25;;;;;;;21.70;20.47;;;;;;;;;;4997073;28;20551;-80
2023/09/24 14:14:52;;;;;;;21.10;19.90;;;;;;;;;;5035717;28;20901;-81
2023/09/24 14:17:20;;;;;;;22.50;21.30;;;;;;;;;;5035232;28;20425;-80
2023/09/24 14:19:47;;;;;;;21.60;20.30;;;;;;;;;;5035639;28;20418;-80
2023/09/24 14:22:14;;;;;;;21.40;20.20;;;;;;;;;;5035340;28;20456;-80
2023/09/24 14:24:42;;;;;;;21.13;19.70;;;;;;;;;;5035550;28;20502;-80
2023/09/24 14:27:09;;;;;;;22.07;20.77;;;;;;;;;;5034943;28;20541;-79